Tall Timbers, Maryland
Current Conditions -  °F | °C
As of 5:53 AM on Monday 22 Dec 2014 (Local Time) from KNUI Reporting Station
Overcast Overcast  
Wind Chill: 30°   Ceiling: 5000
Heat Index: 36°   Visibility: 10mi
Dew Point: 27°   Wind: 7mph
Humidity: 70%   Direction: 60°ENE
Pressure: 30.26"   Gusts: NA
Location:  38.17°N, 76.55°W
Report Text: KNUI 221053Z AUTO 06006KT 10SM OVC050 02/M03 A3026 RMK AO2 SLP247 T00221028
Loading
Personal Weather Stations






























Interactive Weather Map New forecast layout! Learn more

10-Day Weather Forecast

Advertisements
Track Severe Weather on mobile